Time;durP1;ratioP1;P1;durP2;ratioP2;P2;SDS_P1;SDS_P2;PMS_P1;PMS_P2;Temp;Humidity;BMP_temperature;BMP_pressure;BME280_temperature;BME280_humidity;BME280_pressure;Samples;Min_cycle;Max_cycle;Signal;HPM_P1;HPM_P2
2022/12/01 00:00:33;;;;;;;;;;;1.90;99.90;;;;;;5000357;28;19920;-52
2022/12/01 00:02:58;;;;;;;;;;;1.90;99.90;;;;;;5001773;28;20427;-48
2022/12/01 00:05:24;;;;;;;;;;;2.00;99.90;;;;;;5002542;28;19913;-52
2022/12/01 00:07:49;;;;;;;;;;;1.90;99.90;;;;;;5001408;28;19914;-52
2022/12/01 00:10:27;;;;;;;;;;;2.00;99.90;;;;;;5001091;28;19917;-48
2022/12/01 00:12:54;;;;;;;;;;;2.00;99.90;;;;;;5001640;28;19913;-52
2022/12/01 00:15:19;;;;;;;;;;;2.10;99.90;;;;;;5001378;28;19921;-56
2022/12/01 00:17:46;;;;;;;;;;;2.10;99.90;;;;;;5001303;28;19918;-49
2022/12/01 00:20:12;;;;;;;;;;;2.10;99.90;;;;;;5000137;28;19913;-52
2022/12/01 00:22:41;;;;;;;;;;;2.00;99.90;;;;;;5000779;28;20380;-53
2022/12/01 00:25:06;;;;;;;;;;;2.10;99.90;;;;;;5001611;28;19913;-57
2022/12/01 00:27:32;;;;;;;;;;;2.10;99.90;;;;;;5001148;28;19913;-52
2022/12/01 00:29:57;;;;;;;;;;;2.10;99.90;;;;;;5002592;28;19910;-53
2022/12/01 00:32:23;;;;;;;;;;;2.00;99.90;;;;;;5002167;28;20111;-57
2022/12/01 00:34:48;;;;;;;;;;;2.10;99.90;;;;;;5002430;28;20314;-53
2022/12/01 00:37:14;;;;;;;;;;;2.20;99.90;;;;;;5001702;28;19909;-52
2022/12/01 00:39:39;;;;;;;;;;;2.20;99.90;;;;;;5001267;28;19910;-52
2022/12/01 00:42:05;;;;;;;;;;;2.20;99.90;;;;;;4999717;28;20342;-51
2022/12/01 00:44:30;;;;;;;;;;;2.20;99.90;;;;;;4999356;28;20289;-51
2022/12/01 00:46:56;;;;;;;;;;;2.10;99.90;;;;;;5000801;28;20016;-51
2022/12/01 00:49:21;;;;;;;;;;;2.10;99.90;;;;;;5001032;28;19940;-49
2022/12/01 00:51:47;;;;;;;;;;;2.10;99.90;;;;;;4999450;28;19971;-48
2022/12/01 00:54:12;;;;;;;;;;;2.10;99.90;;;;;;4996066;28;19972;-52
2022/12/01 00:56:38;;;;;;;;;;;2.10;99.90;;;;;;5000789;28;19913;-50
2022/12/01 00:59:03;;;;;;;;;;;2.10;99.90;;;;;;4997438;28;20786;-50
2022/12/01 01:01:29;;;;;;;;;;;2.10;99.90;;;;;;4999562;28;19913;-51
2022/12/01 01:03:54;;;;;;;;;;;2.10;99.90;;;;;;5000638;28;20280;-50
2022/12/01 01:06:19;;;;;;;;;;;2.10;99.90;;;;;;5000325;28;20125;-49
2022/12/01 01:08:45;;;;;;;;;;;2.10;99.90;;;;;;4999866;28;19913;-52
2022/12/01 01:11:11;;;;;;;;;;;2.00;99.90;;;;;;4998811;28;20325;-52
2022/12/01 01:13:37;;;;;;;;;;;2.10;99.90;;;;;;5000689;28;19963;-53
2022/12/01 01:16:03;;;;;;;;;;;2.10;99.90;;;;;;5000306;28;19913;-51
2022/12/01 01:18:29;;;;;;;;;;;2.10;99.90;;;;;;5000112;28;19980;-48
2022/12/01 01:20:58;;;;;;;;;;;2.10;99.90;;;;;;5000618;28;20039;-49
2022/12/01 01:23:24;;;;;;;;;;;2.10;99.90;;;;;;4998991;28;19921;-53
2022/12/01 01:25:50;;;;;;;;;;;2.10;99.90;;;;;;4999920;28;20360;-52
2022/12/01 01:28:15;;;;;;;;;;;2.10;99.90;;;;;;5001013;28;20456;-48
2022/12/01 01:30:41;;;;;;;;;;;2.10;99.90;;;;;;4998234;28;19961;-57
2022/12/01 01:33:06;;;;;;;;;;;2.10;99.90;;;;;;5001037;28;19915;-49
2022/12/01 01:35:31;;;;;;;;;;;2.10;99.90;;;;;;4998622;28;20750;-52
2022/12/01 01:37:57;;;;;;;;;;;2.10;99.90;;;;;;5000092;28;20288;-54
2022/12/01 01:40:22;;;;;;;;;;;2.10;99.90;;;;;;4998804;28;20057;-49
2022/12/01 01:42:48;;;;;;;;;;;2.10;99.90;;;;;;4999528;28;20465;-49
2022/12/01 01:45:21;;;;;;;;;;;2.10;99.90;;;;;;5000176;28;19917;-48
2022/12/01 01:47:48;;;;;;;;;;;2.10;99.90;;;;;;5000208;28;19914;-49
2022/12/01 01:50:15;;;;;;;;;;;2.00;99.90;;;;;;5000259;28;20248;-49
2022/12/01 01:52:43;;;;;;;;;;;2.00;99.90;;;;;;5000794;28;19905;-49
2022/12/01 01:55:09;;;;;;;;;;;2.10;99.90;;;;;;4999863;28;20356;-53
2022/12/01 01:57:34;;;;;;;;;;;2.10;99.90;;;;;;4998421;28;19983;-51
2022/12/01 02:00:02;;;;;;;;;;;2.10;99.90;;;;;;4999668;28;19909;-49
2022/12/01 02:02:28;;;;;;;;;;;2.10;99.90;;;;;;4997615;28;19928;-52
2022/12/01 02:04:56;;;;;;;;;;;2.10;99.90;;;;;;4999467;28;19924;-49
2022/12/01 02:07:21;;;;;;;;;;;2.10;99.90;;;;;;5000570;28;20379;-53
2022/12/01 02:09:47;;;;;;;;;;;2.10;99.90;;;;;;4999294;28;20367;-50
2022/12/01 02:12:15;;;;;;;;;;;2.10;99.90;;;;;;4999780;28;20319;-52
2022/12/01 02:14:49;;;;;;;;;;;2.10;99.90;;;;;;4999322;28;19922;-51
2022/12/01 02:17:24;;;;;;;;;;;2.10;99.90;;;;;;4999510;28;20253;-47
2022/12/01 02:20:08;;;;;;;;;;;2.10;99.90;;;;;;4998638;28;19914;-51
2022/12/01 02:22:51;;;;;;;;;;;2.10;99.90;;;;;;4998202;28;19927;-52
2022/12/01 02:25:17;;;;;;;;;;;2.10;99.90;;;;;;4999721;28;20346;-48
2022/12/01 02:28:01;;;;;;;;;;;2.10;99.90;;;;;;4998158;28;20055;-47
2022/12/01 02:30:45;;;;;;;;;;;2.10;99.90;;;;;;4998810;28;19929;-53
2022/12/01 02:33:17;;;;;;;;;;;2.20;99.90;;;;;;5000310;28;20440;-51
2022/12/01 02:35:58;;;;;;;;;;;2.20;99.90;;;;;;4999228;28;19914;-53
2022/12/01 02:38:27;;;;;;;;;;;2.20;99.90;;;;;;4999891;28;19913;-51
2022/12/01 02:41:18;;;;;;;;;;;2.20;99.90;;;;;;4999503;28;20016;-51
2022/12/01 02:43:52;;;;;;;;;;;2.20;99.90;;;;;;4997875;28;19921;-53
2022/12/01 02:46:22;;;;;;;;;;;2.20;99.90;;;;;;4998383;28;19932;-54
2022/12/01 02:48:50;;;;;;;;;;;2.20;99.90;;;;;;4998186;28;19914;-55
2022/12/01 02:51:18;;;;;;;;;;;2.20;99.90;;;;;;4999270;28;19984;-53
2022/12/01 02:53:44;;;;;;;;;;;2.20;99.90;;;;;;4999679;28;19964;-50
2022/12/01 02:56:10;;;;;;;;;;;2.10;99.90;;;;;;4998730;28;20004;-50
2022/12/01 02:58:36;;;;;;;;;;;2.10;99.90;;;;;;5011551;28;20196;-48
2022/12/01 03:01:19;;;;;;;;;;;2.10;99.90;;;;;;4998879;28;19913;-53
2022/12/01 03:04:03;;;;;;;;;;;2.10;99.90;;;;;;5000135;28;19914;-54
2022/12/01 03:06:36;;;;;;;;;;;2.10;99.90;;;;;;4997378;28;19929;-55
2022/12/01 03:09:04;;;;;;;;;;;2.00;99.90;;;;;;4997418;28;19921;-51
2022/12/01 03:11:53;;;;;;;;;;;2.10;99.90;;;;;;4998883;28;20645;-47
2022/12/01 03:14:21;;;;;;;;;;;2.10;99.90;;;;;;4991683;28;19951;-53
2022/12/01 03:16:50;;;;;;;;;;;2.00;99.90;;;;;;4999600;28;19913;-50
2022/12/01 03:19:27;;;;;;;;;;;2.00;99.90;;;;;;5001091;28;20341;-53
2022/12/01 03:21:55;;;;;;;;;;;2.00;99.90;;;;;;5003047;28;19917;-50
2022/12/01 03:24:22;;;;;;;;;;;2.00;99.90;;;;;;5002727;28;20447;-58
2022/12/01 03:26:50;;;;;;;;;;;2.00;99.90;;;;;;5000347;28;19909;-53
2022/12/01 03:29:18;;;;;;;;;;;2.00;99.90;;;;;;5002346;28;20140;-50
2022/12/01 03:31:46;;;;;;;;;;;2.00;99.90;;;;;;5001069;28;19917;-50
2022/12/01 03:34:14;;;;;;;;;;;2.00;99.90;;;;;;5002651;28;19948;-50
2022/12/01 03:37:00;;;;;;;;;;;2.00;99.90;;;;;;5002635;28;19913;-47
2022/12/01 03:39:32;;;;;;;;;;;2.00;99.90;;;;;;5002187;28;19924;-52
2022/12/01 03:42:02;;;;;;;;;;;2.00;99.90;;;;;;5001427;28;19995;-46
2022/12/01 03:44:30;;;;;;;;;;;2.10;99.90;;;;;;5002177;28;20300;-49
2022/12/01 03:46:58;;;;;;;;;;;2.10;99.90;;;;;;5000960;28;19961;-49
2022/12/01 03:49:24;;;;;;;;;;;2.10;99.90;;;;;;5001832;28;19956;-50
2022/12/01 03:51:58;;;;;;;;;;;2.10;99.90;;;;;;5000906;28;20236;-47
2022/12/01 03:54:27;;;;;;;;;;;2.10;99.90;;;;;;5001436;28;19988;-55
2022/12/01 03:56:55;;;;;;;;;;;2.10;99.90;;;;;;5002183;28;19916;-49
2022/12/01 03:59:22;;;;;;;;;;;2.10;99.90;;;;;;5001631;28;20229;-55
2022/12/01 04:01:48;;;;;;;;;;;2.10;99.90;;;;;;5001176;28;20345;-52
2022/12/01 04:04:14;;;;;;;;;;;2.10;99.90;;;;;;5001847;28;19995;-52
2022/12/01 04:06:41;;;;;;;;;;;2.10;99.90;;;;;;5002536;28;20015;-51
2022/12/01 04:09:06;;;;;;;;;;;2.10;99.90;;;;;;5002743;28;19909;-55
2022/12/01 04:14:16;;;;;;;;;;;2.10;99.90;;;;;;5001669;28;20342;-51
2022/12/01 04:16:41;;;;;;;;;;;2.10;99.90;;;;;;5001397;28;20027;-52
2022/12/01 04:19:07;;;;;;;;;;;2.10;99.90;;;;;;5000478;28;20377;-51
2022/12/01 04:21:32;;;;;;;;;;;2.10;99.90;;;;;;5000895;28;19913;-54
2022/12/01 04:24:01;;;;;;;;;;;2.10;99.90;;;;;;5002175;28;19917;-50
2022/12/01 04:26:27;;;;;;;;;;;2.10;99.90;;;;;;4999889;28;19971;-51
2022/12/01 04:28:53;;;;;;;;;;;2.00;99.90;;;;;;5000443;28;19909;-51
2022/12/01 04:31:18;;;;;;;;;;;2.00;99.90;;;;;;5001580;28;19909;-50
2022/12/01 04:33:44;;;;;;;;;;;2.00;99.90;;;;;;5001674;28;20576;-51
2022/12/01 04:36:09;;;;;;;;;;;2.10;99.90;;;;;;5000868;28;19957;-50
2022/12/01 04:38:35;;;;;;;;;;;2.10;99.90;;;;;;5000910;28;20089;-53
2022/12/01 04:41:07;;;;;;;;;;;2.10;99.90;;;;;;4999864;28;20303;-57
2022/12/01 04:43:32;;;;;;;;;;;2.00;99.90;;;;;;4998527;28;19924;-50
2022/12/01 04:45:58;;;;;;;;;;;2.00;99.90;;;;;;5000376;28;19913;-51
2022/12/01 04:48:23;;;;;;;;;;;2.00;99.90;;;;;;4999807;28;19922;-50
2022/12/01 04:50:49;;;;;;;;;;;2.00;99.90;;;;;;5000603;28;19920;-51
2022/12/01 04:53:14;;;;;;;;;;;2.00;99.90;;;;;;4998224;28;19913;-48
2022/12/01 04:55:40;;;;;;;;;;;2.10;99.90;;;;;;5000677;28;20007;-51
2022/12/01 04:58:05;;;;;;;;;;;2.00;99.90;;;;;;4999136;28;19966;-50
2022/12/01 05:00:31;;;;;;;;;;;2.00;99.90;;;;;;4998459;28;19913;-52
2022/12/01 05:02:57;;;;;;;;;;;2.00;99.90;;;;;;4999562;28;20359;-51
2022/12/01 05:05:22;;;;;;;;;;;2.10;99.90;;;;;;5000758;28;19972;-52
2022/12/01 05:07:48;;;;;;;;;;;2.10;99.90;;;;;;5001405;28;20416;-52
2022/12/01 05:10:13;;;;;;;;;;;2.10;99.90;;;;;;5000025;28;19918;-49
2022/12/01 05:12:40;;;;;;;;;;;2.10;99.90;;;;;;5000193;28;19918;-46
2022/12/01 05:15:06;;;;;;;;;;;2.00;99.90;;;;;;4999137;28;19959;-48
2022/12/01 05:17:31;;;;;;;;;;;2.10;99.90;;;;;;4999934;28;19917;-50
2022/12/01 05:22:41;;;;;;;;;;;2.10;99.90;;;;;;4998412;28;19928;-57
2022/12/01 05:25:07;;;;;;;;;;;2.10;99.90;;;;;;5000484;28;19913;-52
2022/12/01 05:27:32;;;;;;;;;;;2.10;99.90;;;;;;4999765;28;19921;-49
2022/12/01 05:29:58;;;;;;;;;;;2.10;99.90;;;;;;5000491;28;19909;-53
2022/12/01 05:32:23;;;;;;;;;;;2.10;99.90;;;;;;4997117;28;20423;-50
2022/12/01 05:34:49;;;;;;;;;;;2.10;99.90;;;;;;5001743;28;19910;-53
2022/12/01 05:37:14;;;;;;;;;;;2.10;99.90;;;;;;4999310;28;19921;-50
2022/12/01 05:39:39;;;;;;;;;;;2.20;99.90;;;;;;5000518;28;19984;-49
2022/12/01 05:42:05;;;;;;;;;;;2.20;99.90;;;;;;4998992;28;19913;-47
2022/12/01 05:44:30;;;;;;;;;;;2.20;99.90;;;;;;5000157;28;19920;-49
2022/12/01 05:46:56;;;;;;;;;;;2.30;99.90;;;;;;5000081;28;19998;-48
2022/12/01 05:49:21;;;;;;;;;;;2.20;99.90;;;;;;4999114;28;20284;-50
2022/12/01 05:51:47;;;;;;;;;;;2.20;99.90;;;;;;5000760;28;20077;-51
2022/12/01 05:54:12;;;;;;;;;;;2.20;99.90;;;;;;5000465;28;19909;-49
2022/12/01 05:56:38;;;;;;;;;;;2.20;99.90;;;;;;5000906;28;20268;-49
2022/12/01 05:59:03;;;;;;;;;;;2.20;99.90;;;;;;5001051;28;19913;-47
2022/12/01 06:01:29;;;;;;;;;;;2.20;99.90;;;;;;4999667;28;19921;-49
2022/12/01 06:03:54;;;;;;;;;;;2.10;99.90;;;;;;5000248;28;19913;-47
2022/12/01 06:06:20;;;;;;;;;;;2.10;99.90;;;;;;5000744;28;19940;-49
2022/12/01 06:08:45;;;;;;;;;;;2.10;99.90;;;;;;5001053;28;20835;-48
2022/12/01 06:11:11;;;;;;;;;;;2.10;99.90;;;;;;5000711;28;19963;-51
2022/12/01 06:13:36;;;;;;;;;;;2.10;99.90;;;;;;5000742;28;20371;-49
2022/12/01 06:16:03;;;;;;;;;;;2.00;99.90;;;;;;5000269;28;20061;-50
2022/12/01 06:18:29;;;;;;;;;;;2.10;99.90;;;;;;5000743;28;19909;-57
2022/12/01 06:20:55;;;;;;;;;;;2.10;99.90;;;;;;5000248;28;19909;-49
2022/12/01 06:23:20;;;;;;;;;;;2.10;99.90;;;;;;5000063;28;19921;-51
2022/12/01 06:25:46;;;;;;;;;;;2.10;99.90;;;;;;5000587;28;19909;-53
2022/12/01 06:28:11;;;;;;;;;;;2.10;99.90;;;;;;5000123;28;20479;-49
2022/12/01 06:30:37;;;;;;;;;;;2.10;99.90;;;;;;4999816;28;19913;-54
2022/12/01 06:33:02;;;;;;;;;;;2.20;99.90;;;;;;4999374;28;19925;-56
2022/12/01 06:35:28;;;;;;;;;;;2.20;99.90;;;;;;5000536;28;20340;-50
2022/12/01 06:37:53;;;;;;;;;;;2.20;99.90;;;;;;5000604;28;20527;-47
2022/12/01 06:40:19;;;;;;;;;;;2.10;99.90;;;;;;5000259;28;20258;-53
2022/12/01 06:42:44;;;;;;;;;;;2.10;99.90;;;;;;5000123;28;20348;-52
2022/12/01 06:45:10;;;;;;;;;;;2.20;99.90;;;;;;5000557;28;19971;-51
2022/12/01 06:47:35;;;;;;;;;;;2.10;99.90;;;;;;5000606;28;19909;-50
2022/12/01 06:50:01;;;;;;;;;;;2.20;99.90;;;;;;4999955;28;19909;-54
2022/12/01 06:52:27;;;;;;;;;;;2.20;99.90;;;;;;5002643;28;19909;-49
2022/12/01 06:54:52;;;;;;;;;;;2.20;99.90;;;;;;5003992;28;19952;-55
2022/12/01 06:57:18;;;;;;;;;;;2.20;99.90;;;;;;5004044;28;19913;-48
2022/12/01 06:59:43;;;;;;;;;;;2.20;99.90;;;;;;5003653;28;20387;-48
2022/12/01 07:02:11;;;;;;;;;;;2.10;99.90;;;;;;5002612;28;20016;-48
2022/12/01 07:04:37;;;;;;;;;;;2.10;99.90;;;;;;5003071;28;20356;-53
2022/12/01 07:07:04;;;;;;;;;;;2.10;99.90;;;;;;5002958;28;19993;-52
2022/12/01 07:09:29;;;;;;;;;;;2.00;99.90;;;;;;5002695;28;20100;-46
2022/12/01 07:11:54;;;;;;;;;;;2.00;99.90;;;;;;5003773;28;19905;-51
2022/12/01 07:14:24;;;;;;;;;;;2.00;99.90;;;;;;5003572;28;20408;-51
2022/12/01 07:16:49;;;;;;;;;;;2.00;99.90;;;;;;5003319;28;19913;-48
2022/12/01 07:19:15;;;;;;;;;;;2.00;99.90;;;;;;5003693;28;20450;-50
2022/12/01 07:21:40;;;;;;;;;;;2.00;99.90;;;;;;5003120;28;19920;-52
2022/12/01 07:24:06;;;;;;;;;;;2.00;99.90;;;;;;5003431;28;19917;-51
2022/12/01 07:26:32;;;;;;;;;;;2.10;99.90;;;;;;5000526;28;20279;-47
2022/12/01 07:28:57;;;;;;;;;;;2.00;99.90;;;;;;5003379;28;20056;-51
2022/12/01 07:31:23;;;;;;;;;;;2.10;99.90;;;;;;5002915;28;20360;-50
2022/12/01 07:33:48;;;;;;;;;;;2.10;99.90;;;;;;5003505;28;19963;-48
2022/12/01 07:36:14;;;;;;;;;;;2.10;99.90;;;;;;5001494;28;19916;-46
2022/12/01 07:38:40;;;;;;;;;;;2.10;99.90;;;;;;5002053;28;19959;-51
2022/12/01 07:41:08;;;;;;;;;;;2.10;99.90;;;;;;5003426;28;19909;-49
2022/12/01 07:43:34;;;;;;;;;;;2.20;99.90;;;;;;5002275;28;19974;-51
2022/12/01 07:46:19;;;;;;;;;;;2.20;99.90;;;;;;5003248;28;19913;-48
2022/12/01 07:48:45;;;;;;;;;;;2.20;99.90;;;;;;5002694;28;19917;-48
2022/12/01 07:51:12;;;;;;;;;;;2.20;99.90;;;;;;5003057;28;20360;-50
2022/12/01 07:53:38;;;;;;;;;;;2.20;99.90;;;;;;5002747;28;19936;-51
2022/12/01 07:56:04;;;;;;;;;;;2.20;99.90;;;;;;5002773;28;20012;-52
2022/12/01 07:58:30;;;;;;;;;;;2.20;99.90;;;;;;5003040;28;19953;-53
2022/12/01 08:00:55;;;;;;;;;;;2.20;99.90;;;;;;5002954;28;20371;-50
2022/12/01 08:03:21;;;;;;;;;;;2.20;99.90;;;;;;5000289;28;19913;-53
2022/12/01 08:05:57;;;;;;;;;;;2.30;99.90;;;;;;5002642;28;20430;-50
2022/12/01 08:08:23;;;;;;;;;;;2.30;99.90;;;;;;5001532;28;20184;-48
2022/12/01 08:10:48;;;;;;;;;;;2.30;99.90;;;;;;5002890;28;20000;-47
2022/12/01 08:13:14;;;;;;;;;;;2.30;99.90;;;;;;5002022;28;19963;-49
2022/12/01 08:15:39;;;;;;;;;;;2.40;99.90;;;;;;5002505;28;19913;-54
2022/12/01 08:18:05;;;;;;;;;;;2.40;99.90;;;;;;5002566;28;19948;-54
2022/12/01 08:20:30;;;;;;;;;;;2.40;99.90;;;;;;5000983;28;19909;-49
2022/12/01 08:22:58;;;;;;;;;;;2.50;99.90;;;;;;5002275;28;19952;-50
2022/12/01 08:25:24;;;;;;;;;;;2.40;99.90;;;;;;5002616;28;20260;-49
2022/12/01 08:27:49;;;;;;;;;;;2.50;99.90;;;;;;5002288;28;19916;-50
2022/12/01 08:30:15;;;;;;;;;;;2.50;99.90;;;;;;5002323;28;20460;-51
2022/12/01 08:32:40;;;;;;;;;;;2.50;99.90;;;;;;5002017;28;20011;-48
2022/12/01 08:35:06;;;;;;;;;;;2.50;99.90;;;;;;5002408;28;19996;-52
2022/12/01 08:37:32;;;;;;;;;;;2.50;99.90;;;;;;5001311;28;20448;-50
2022/12/01 08:39:57;;;;;;;;;;;2.50;99.90;;;;;;5002489;28;19909;-53
2022/12/01 08:42:23;;;;;;;;;;;2.50;99.90;;;;;;5001730;28;20004;-52
2022/12/01 08:44:48;;;;;;;;;;;2.50;99.90;;;;;;5001907;28;19913;-49
2022/12/01 08:47:14;;;;;;;;;;;2.50;99.90;;;;;;5001700;28;20315;-49
2022/12/01 08:49:39;;;;;;;;;;;2.50;99.90;;;;;;5000507;28;19959;-53
2022/12/01 08:52:05;;;;;;;;;;;2.50;99.90;;;;;;5000145;28;20364;-49
2022/12/01 08:54:30;;;;;;;;;;;2.50;99.90;;;;;;5001003;28;19927;-49
2022/12/01 08:56:56;;;;;;;;;;;2.50;99.90;;;;;;5002129;28;19955;-48
2022/12/01 08:59:21;;;;;;;;;;;2.60;99.90;;;;;;5001168;28;19972;-53
2022/12/01 09:01:52;;;;;;;;;;;2.60;99.90;;;;;;5002241;28;19909;-51
2022/12/01 09:04:19;;;;;;;;;;;2.60;99.90;;;;;;5001520;28;20021;-52
2022/12/01 09:06:45;;;;;;;;;;;2.50;99.90;;;;;;5001447;28;19909;-49
2022/12/01 09:09:12;;;;;;;;;;;2.50;99.90;;;;;;5000925;28;19921;-47
2022/12/01 09:11:38;;;;;;;;;;;2.50;99.90;;;;;;5001518;28;20286;-50
2022/12/01 09:14:04;;;;;;;;;;;2.60;99.90;;;;;;5001389;28;19909;-49
2022/12/01 09:16:29;;;;;;;;;;;2.50;99.90;;;;;;5001318;28;19949;-49
2022/12/01 09:18:55;;;;;;;;;;;2.50;99.90;;;;;;5001331;28;19941;-51
2022/12/01 09:21:22;;;;;;;;;;;2.50;99.90;;;;;;5000976;28;19956;-50
2022/12/01 09:23:48;;;;;;;;;;;2.50;99.90;;;;;;5001099;28;19983;-48
2022/12/01 09:26:17;;;;;;;;;;;2.50;99.90;;;;;;5001871;28;19956;-53
2022/12/01 09:28:44;;;;;;;;;;;2.50;99.90;;;;;;5001268;28;19913;-53
2022/12/01 09:31:10;;;;;;;;;;;2.50;99.90;;;;;;5000918;28;20047;-52
2022/12/01 09:33:36;;;;;;;;;;;2.50;99.90;;;;;;5001159;28;20535;-48
2022/12/01 09:36:02;;;;;;;;;;;2.50;99.90;;;;;;5000965;28;19920;-47
2022/12/01 09:38:28;;;;;;;;;;;2.60;99.90;;;;;;4999680;28;19962;-51
2022/12/01 09:40:54;;;;;;;;;;;2.60;99.90;;;;;;5000520;28;19917;-51
2022/12/01 09:43:25;;;;;;;;;;;2.60;99.90;;;;;;4999692;28;20307;-55
2022/12/01 09:45:53;;;;;;;;;;;2.60;99.90;;;;;;5001399;28;19909;-53
2022/12/01 09:48:24;;;;;;;;;;;2.60;99.90;;;;;;5000893;28;19905;-49
2022/12/01 09:50:50;;;;;;;;;;;2.60;99.90;;;;;;5001370;28;19920;-51
2022/12/01 09:53:18;;;;;;;;;;;2.60;99.90;;;;;;5000405;28;19905;-48
2022/12/01 09:55:45;;;;;;;;;;;2.60;99.90;;;;;;5000791;28;20410;-47
2022/12/01 09:58:16;;;;;;;;;;;2.60;99.90;;;;;;5000759;28;20284;-52
2022/12/01 10:00:42;;;;;;;;;;;2.70;99.90;;;;;;5000602;28;19955;-47
2022/12/01 10:03:08;;;;;;;;;;;2.70;99.90;;;;;;5000470;28;20407;-51
2022/12/01 10:05:43;;;;;;;;;;;2.80;99.90;;;;;;5000600;28;19916;-48
2022/12/01 10:08:12;;;;;;;;;;;2.80;99.90;;;;;;4999482;28;19959;-56
2022/12/01 10:10:47;;;;;;;;;;;2.90;99.90;;;;;;5001276;28;19917;-48
2022/12/01 10:13:24;;;;;;;;;;;2.90;99.90;;;;;;5000560;28;20035;-52
2022/12/01 10:15:52;;;;;;;;;;;2.90;99.90;;;;;;5000767;28;20340;-49
2022/12/01 10:18:39;;;;;;;;;;;2.90;99.90;;;;;;5001099;28;20390;-48
2022/12/01 10:21:23;;;;;;;;;;;2.90;99.90;;;;;;4999395;28;19913;-49
2022/12/01 10:23:59;;;;;;;;;;;2.90;99.90;;;;;;4999764;28;19929;-49
2022/12/01 10:26:31;;;;;;;;;;;3.00;99.90;;;;;;4999904;28;19909;-48
2022/12/01 10:28:59;;;;;;;;;;;3.00;99.90;;;;;;5000069;28;19917;-51
2022/12/01 10:31:34;;;;;;;;;;;3.00;99.90;;;;;;5000352;28;20327;-48
2022/12/01 10:34:01;;;;;;;;;;;3.10;99.90;;;;;;5000349;28;19918;-49
2022/12/01 10:36:28;;;;;;;;;;;3.10;99.90;;;;;;5000238;28;19910;-49
2022/12/01 10:38:53;;;;;;;;;;;3.00;99.90;;;;;;4998539;28;20423;-51
2022/12/01 10:41:20;;;;;;;;;;;3.10;99.90;;;;;;5000201;28;20027;-52
2022/12/01 10:43:50;;;;;;;;;;;3.10;99.90;;;;;;4999973;28;20152;-47
2022/12/01 10:46:24;;;;;;;;;;;3.00;99.90;;;;;;4999220;28;19921;-47
2022/12/01 10:48:54;;;;;;;;;;;3.00;99.90;;;;;;4999628;28;19921;-49
2022/12/01 10:51:21;;;;;;;;;;;3.10;99.90;;;;;;5000501;28;19936;-51
2022/12/01 10:53:47;;;;;;;;;;;3.10;99.90;;;;;;4999899;28;20268;-51
2022/12/01 10:56:15;;;;;;;;;;;3.00;99.90;;;;;;4999928;28;19965;-51
2022/12/01 10:58:54;;;;;;;;;;;3.00;99.90;;;;;;4998898;28;19909;-52
2022/12/01 11:01:46;;;;;;;;;;;3.00;99.90;;;;;;5000209;28;20104;-49
2022/12/01 11:04:30;;;;;;;;;;;3.00;99.90;;;;;;4997868;28;19913;-49
2022/12/01 11:06:56;;;;;;;;;;;2.90;99.90;;;;;;5000317;28;20326;-46
2022/12/01 11:09:27;;;;;;;;;;;2.90;99.90;;;;;;4999874;28;19913;-55
2022/12/01 11:12:00;;;;;;;;;;;2.90;99.90;;;;;;4998933;28;19909;-48
2022/12/01 11:14:31;;;;;;;;;;;3.00;99.90;;;;;;5014420;28;19910;-51
2022/12/01 11:17:12;;;;;;;;;;;3.00;99.90;;;;;;4998635;28;20206;-54
2022/12/01 11:19:38;;;;;;;;;;;3.00;99.90;;;;;;4999468;28;20743;-47
2022/12/01 11:22:22;;;;;;;;;;;2.90;99.90;;;;;;4999574;28;19967;-47
2022/12/01 11:24:51;;;;;;;;;;;2.90;99.90;;;;;;4999785;28;20899;-48
2022/12/01 11:27:18;;;;;;;;;;;3.00;99.90;;;;;;5000045;28;20437;-50
2022/12/01 11:29:45;;;;;;;;;;;3.00;99.90;;;;;;4999868;28;20161;-49
2022/12/01 11:32:24;;;;;;;;;;;3.10;99.90;;;;;;5000213;28;20408;-53
2022/12/01 11:35:08;;;;;;;;;;;3.10;99.90;;;;;;4999429;28;19909;-49
2022/12/01 11:37:38;;;;;;;;;;;3.20;99.90;;;;;;4999967;28;19959;-47
2022/12/01 11:40:22;;;;;;;;;;;3.20;99.90;;;;;;5003024;28;20351;-50
2022/12/01 11:42:51;;;;;;;;;;;3.20;99.90;;;;;;5002927;28;19944;-49
2022/12/01 11:45:19;;;;;;;;;;;3.20;99.90;;;;;;5003029;28;20275;-53
2022/12/01 11:48:02;;;;;;;;;;;3.20;99.90;;;;;;5001938;28;19913;-51
2022/12/01 11:50:29;;;;;;;;;;;3.20;99.90;;;;;;5003097;28;19910;-51
2022/12/01 11:52:55;;;;;;;;;;;3.20;99.90;;;;;;5003150;28;19992;-50
2022/12/01 11:55:21;;;;;;;;;;;3.20;99.90;;;;;;5001898;28;20351;-47
2022/12/01 11:57:49;;;;;;;;;;;3.20;99.90;;;;;;5001455;28;19909;-47
2022/12/01 12:00:16;;;;;;;;;;;3.10;99.90;;;;;;5002614;28;19910;-48
2022/12/01 12:02:54;;;;;;;;;;;3.10;99.90;;;;;;5002670;28;19909;-51
2022/12/01 12:05:23;;;;;;;;;;;3.10;99.90;;;;;;5002962;28;20000;-55
2022/12/01 12:08:11;;;;;;;;;;;3.20;99.90;;;;;;5002720;28;20497;-53
2022/12/01 12:10:37;;;;;;;;;;;3.20;99.90;;;;;;4997092;28;19996;-50
2022/12/01 12:13:02;;;;;;;;;;;3.20;99.90;;;;;;5002488;28;20462;-50
2022/12/01 12:15:27;;;;;;;;;;;3.20;99.90;;;;;;5002421;28;19909;-46
2022/12/01 12:18:08;;;;;;;;;;;3.20;99.90;;;;;;5001157;28;19913;-50
2022/12/01 12:20:34;;;;;;;;;;;3.20;99.90;;;;;;5001575;28;19920;-47
2022/12/01 12:23:08;;;;;;;;;;;3.20;99.90;;;;;;5001940;28;19917;-47
2022/12/01 12:25:43;;;;;;;;;;;3.20;99.90;;;;;;5000447;28;20286;-49
2022/12/01 12:28:26;;;;;;;;;;;3.20;99.90;;;;;;5002312;28;19910;-53
2022/12/01 12:31:07;;;;;;;;;;;3.20;99.90;;;;;;5002195;28;19959;-48
2022/12/01 12:33:35;;;;;;;;;;;3.20;99.90;;;;;;5002061;28;19914;-47
2022/12/01 12:36:10;;;;;;;;;;;3.20;99.90;;;;;;5002211;28;19909;-51
2022/12/01 12:38:38;;;;;;;;;;;3.20;99.90;;;;;;5001772;28;20371;-48
2022/12/01 12:41:23;;;;;;;;;;;3.20;99.90;;;;;;5001755;28;19916;-50
2022/12/01 12:43:58;;;;;;;;;;;3.20;99.90;;;;;;5002363;28;19920;-48
2022/12/01 12:46:35;;;;;;;;;;;3.20;99.90;;;;;;5001613;28;19914;-49
2022/12/01 12:49:27;;;;;;;;;;;3.20;99.90;;;;;;5001433;28;20434;-54
2022/12/01 12:52:00;;;;;;;;;;;3.20;99.90;;;;;;4998567;28;19914;-49
2022/12/01 12:54:32;;;;;;;;;;;3.20;99.90;;;;;;5002351;28;19964;-50
2022/12/01 12:57:11;;;;;;;;;;;3.20;99.90;;;;;;5001273;28;19919;-50
2022/12/01 12:59:43;;;;;;;;;;;3.20;99.90;;;;;;5001820;28;19909;-48
2022/12/01 13:02:18;;;;;;;;;;;3.30;99.90;;;;;;5001645;28;19920;-51
2022/12/01 13:04:50;;;;;;;;;;;3.20;99.90;;;;;;5001499;28;19913;-48
2022/12/01 13:07:27;;;;;;;;;;;3.20;99.90;;;;;;5001452;28;20355;-46
2022/12/01 13:09:56;;;;;;;;;;;3.30;99.90;;;;;;5001730;28;20006;-47
2022/12/01 13:12:30;;;;;;;;;;;3.30;99.90;;;;;;5001381;28;20306;-52
2022/12/01 13:14:59;;;;;;;;;;;3.20;99.90;;;;;;5001375;28;19909;-47
2022/12/01 13:17:27;;;;;;;;;;;3.20;99.90;;;;;;4999840;28;19959;-54
2022/12/01 13:19:52;;;;;;;;;;;3.10;99.90;;;;;;5001212;28;19920;-48
2022/12/01 13:22:20;;;;;;;;;;;3.20;99.90;;;;;;5000085;28;20285;-54
2022/12/01 13:24:46;;;;;;;;;;;3.30;99.90;;;;;;4999938;28;19929;-58
2022/12/01 13:27:22;;;;;;;;;;;3.20;99.90;;;;;;5001020;28;19964;-50
2022/12/01 13:29:50;;;;;;;;;;;3.10;99.90;;;;;;5001284;28;19909;-53
2022/12/01 13:32:27;;;;;;;;;;;3.20;99.90;;;;;;5000889;28;19996;-51
2022/12/01 13:34:53;;;;;;;;;;;3.20;99.90;;;;;;5001259;28;20012;-50
2022/12/01 13:37:30;;;;;;;;;;;3.20;99.90;;;;;;5001255;28;20827;-51
2022/12/01 13:40:05;;;;;;;;;;;3.20;99.90;;;;;;5001346;28;20024;-48
2022/12/01 13:42:33;;;;;;;;;;;3.20;99.90;;;;;;5000566;28;19909;-50
2022/12/01 13:44:59;;;;;;;;;;;3.20;99.90;;;;;;5000853;28;20651;-48
2022/12/01 13:47:29;;;;;;;;;;;3.20;99.90;;;;;;5001256;28;20298;-49
2022/12/01 13:49:57;;;;;;;;;;;3.20;99.90;;;;;;5000799;28;20020;-51
2022/12/01 13:52:25;;;;;;;;;;;3.20;99.90;;;;;;5000886;28;20003;-51
2022/12/01 13:55:06;;;;;;;;;;;3.10;99.90;;;;;;5000081;28;20012;-51
2022/12/01 13:57:51;;;;;;;;;;;3.20;99.90;;;;;;5000572;28;19916;-47
2022/12/01 14:00:22;;;;;;;;;;;3.20;99.90;;;;;;4993151;28;19905;-48
2022/12/01 14:03:07;;;;;;;;;;;3.10;99.90;;;;;;5000206;28;19966;-51
2022/12/01 14:05:38;;;;;;;;;;;3.10;99.90;;;;;;5000443;28;19987;-48
2022/12/01 14:08:12;;;;;;;;;;;3.10;99.90;;;;;;5000545;28;19909;-52
2022/12/01 14:10:37;;;;;;;;;;;3.00;99.90;;;;;;5000651;28;19913;-54
2022/12/01 14:13:04;;;;;;;;;;;3.00;99.90;;;;;;5000502;28;19955;-50
2022/12/01 14:15:36;;;;;;;;;;;3.00;99.90;;;;;;5000506;28;19941;-54
2022/12/01 14:18:16;;;;;;;;;;;2.90;99.90;;;;;;5000427;28;20331;-49
2022/12/01 14:20:45;;;;;;;;;;;2.90;99.90;;;;;;5000106;28;19905;-51
2022/12/01 14:23:17;;;;;;;;;;;2.90;99.90;;;;;;4998258;28;19973;-52
2022/12/01 14:25:55;;;;;;;;;;;2.90;99.90;;;;;;5000197;28;19952;-50
2022/12/01 14:28:41;;;;;;;;;;;2.90;99.90;;;;;;5000450;28;20540;-50
2022/12/01 14:31:06;;;;;;;;;;;2.90;99.90;;;;;;5000036;28;19909;-51
2022/12/01 14:33:38;;;;;;;;;;;2.90;99.90;;;;;;5000447;28;19913;-47
2022/12/01 14:36:08;;;;;;;;;;;2.90;99.90;;;;;;5000298;28;19916;-51
2022/12/01 14:38:34;;;;;;;;;;;2.80;99.90;;;;;;5000245;28;19909;-50
2022/12/01 14:40:59;;;;;;;;;;;2.80;99.90;;;;;;5000407;28;19917;-49
2022/12/01 14:46:19;;;;;;;;;;;2.80;99.90;;;;;;5000496;28;20450;-56
2022/12/01 14:48:45;;;;;;;;;;;2.70;99.90;;;;;;5000511;28;19999;-47